• Join FlightAware (Why Join?)
  • Login
  • US Flag 
08:36PM EDT


 

Airport Tracker/Info


-or-


 

Live Flight TrackerFlight Track Log ✈ UAL395 ✈ 02-May-2013 ✈ KLAS - KSFO

Flight Track Log - Related Links

Times and Time Zones

All times are in EDT time to prevent confusion due to time zone crossing. See the UAL395 flight status page for this flight to view local times or setup timezone preferences in your user account.

Time Position Orientation Groundspeed Altitude Reporting Facility
EDT Latitude Longitude Course Direction KTS MPH feet Rate Location/Type
12:44PM 36.0753 -115.1153 270° West 175 201 3,100  Level Los Angeles Center
12:45PM 36.0778 -115.0667 86° East 203 234 4,700 2,160 Climbing Los Angeles Center
12:46PM 36.0769 -114.9842 91° East 252 290 6,900 1,440 Climbing Los Angeles Center
12:47PM 36.0506 -114.9292 121° Southeast 262 302 7,500 1,800 Climbing Los Angeles Center
12:47PM 36.0081 -114.9353 187° South 306 352 9,100 3,240 Climbing Los Angeles Center
12:48PM 35.9536 -114.9675 206° Southwest 306 352 10,900 2,040 Climbing Los Angeles Center
12:48PM 35.9258 -114.9839 206° Southwest 338 389 11,200 2,280 Climbing Los Angeles Center
12:49PM 35.8834 -115.5793 270° West  Level FlightAware Approximate
12:49PM 35.8403 -115.0681 219° Southwest 368 423 14,200  Level Los Angeles Center
12:50PM 35.8834 -115.7017 270° West  Level FlightAware Approximate
12:50PM 35.8372 -115.1414 267° West 367 422 15,800  Level Los Angeles Center
12:51PM 35.8469 -115.2675 275° West 369 425 18,100 1,920 Climbing Los Angeles Center
12:52PM 35.8558 -115.3975 275° West 376 433 19,800 1,740 Climbing Los Angeles Center
12:53PM 35.8839 -115.5269 285° West 388 447 21,800 2,100 Climbing Los Angeles Center
12:54PM 35.9578 -115.6564 305° West 405 466 24,200 2,040 Climbing Los Angeles Center
12:55PM 36.0281 -115.7808 305° West 407 468 26,100 1,620 Climbing Los Angeles Center
12:57PM 36.1631 -116.0203 305° West 423 487 29,400 1,560 Climbing Los Angeles Center
12:58PM 36.2314 -116.1414 305° West 427 491 31,100 1,200 Climbing Los Angeles Center
12:59PM 36.2917 -116.2492 305° West 425 489 32,000 420 Climbing Los Angeles Center
01:00PM 36.3725 -116.3933 305° West 426 490 32,000  Level Los Angeles Center
01:01PM 36.4383 -116.5144 304° West 425 489 32,000  Level Los Angeles Center
01:02PM 36.5056 -116.6344 305° West 426 490 32,000  Level Los Angeles Center
01:03PM 36.5892 -116.7642 309° West 429 494 32,000  Level Los Angeles Center
01:04PM 36.6914 -116.8411 329° Northwest 428 493 32,000  Level Los Angeles Center
01:05PM 36.8011 -116.9225 329° Northwest 431 496 32,000  Level Los Angeles Center
01:06PM 36.8950 -116.9975 327° Northwest 428 493 32,000  Level Oakland Center
01:07PM 36.9969 -117.0769 328° Northwest 429 494 32,000  Level Oakland Center
01:08PM 37.0981 -117.1536 329° Northwest 426 490 32,000  Level Oakland Center
01:09PM 37.2003 -117.2322 329° Northwest 429 494 32,000  Level Oakland Center
01:10PM 37.3019 -117.3108 328° Northwest 427 491 32,000  Level Oakland Center
01:11PM 37.3703 -117.4250 307° West 419 482 32,000  Level Oakland Center
01:12PM 37.3872 -117.6028 277° West 425 489 32,000  Level Oakland Center
01:13PM 37.3992 -117.7506 276° West 424 488 32,000  Level Oakland Center
01:14PM 37.4117 -117.8997 276° West 426 490 32,000  Level Oakland Center
01:16PM 37.4239 -118.0469 276° West 425 489 32,000  Level Oakland Center
01:17PM 37.4361 -118.1956 276° West 424 488 32,000  Level Oakland Center
01:18PM 37.4472 -118.3444 275° West 426 490 32,000  Level Oakland Center
01:19PM 37.4594 -118.4936 276° West 426 490 32,000  Level Oakland Center
01:20PM 37.4711 -118.6425 276° West 427 491 32,000  Level Oakland Center
01:21PM 37.4831 -118.7906 276° West 427 491 32,000  Level Oakland Center
01:22PM 37.4933 -118.9417 275° West 428 493 32,000  Level Oakland Center
01:23PM 37.5050 -119.0917 276° West 430 495 32,000  Level Oakland Center
01:24PM 37.5189 -119.2733 276° West 436 502 32,000 -60 Level Oakland Center
01:25PM 37.5289 -119.4200 275° West 417 480 31,900  Descending Oakland Center
01:26PM 37.5381 -119.5703 274° West 434 499 32,000  Climbing Oakland Center
01:27PM 37.5478 -119.7189 275° West 426 490 32,000  Level Oakland Center
01:28PM 37.5578 -119.8658 275° West 422 486 32,000  Level Oakland Center
01:29PM 37.5669 -120.0194 274° West 438 504 32,000  Level Oakland Center
01:30PM 37.5789 -120.1617 276° West 411 473 32,000 -300 Level Oakland Center
01:31PM 37.5878 -120.3128 274° West 424 488 31,400 -1,440 Descending Oakland Center
01:32PM 37.5972 -120.4647 275° West 433 498 29,100 -2,460 Descending Oakland Center
01:33PM 37.6069 -120.6414 274° West 423 487 26,400 -2,880 Descending Oakland Center
01:34PM 37.6172 -120.7861 275° West 416 479 23,200 -3,240 Descending Oakland Center
01:35PM 37.6167 -120.9500 270° West 435 501 19,700 -2,760 Descending Northern Cal TRACON
01:36PM 37.6167 -121.1000 270° West 425 489 17,600 -2,100 Descending Northern Cal TRACON
01:37PM 37.6000 -121.2333 261° West 393 452 15,500 -1,800 Descending Northern Cal TRACON
01:38PM 37.5833 -121.3667 261° West 351 404 14,000 -1,440 Descending Northern Cal TRACON
01:39PM 37.5667 -121.4667 258° West 308 354 12,700 -1,320 Descending Northern Cal TRACON
01:40PM 37.5500 -121.5833 260° West 306 352 11,400 -900 Descending Northern Cal TRACON
01:41PM 37.5333 -121.6667 256° West 292 336 11,000 -600 Descending Northern Cal TRACON
01:42PM 37.5000 -121.7333 238° Southwest 258 297 10,300 -900 Descending Northern Cal TRACON
01:43PM 37.4667 -121.8000 238° Southwest 250 288 9,300 -1,200 Descending Northern Cal TRACON
01:44PM 37.4833 -121.8833 284° West 247 284 8,000 -1,200 Descending Northern Cal TRACON
01:45PM 37.5000 -121.9667 284° West 242 278 6,900 -1,020 Descending Northern Cal TRACON
01:46PM 37.5167 -122.0333 288° West 224 258 6,100 -900 Descending Northern Cal TRACON
01:47PM 37.5333 -122.1000 288° West 196 226 5,200 -1,080 Descending Northern Cal TRACON
01:47PM 37.5422 -122.1258 293° West 208 239 4,600 -1,380 Descending Oakland Center